createdAt,value
2017-12-02T00:01:26.447Z,18.58
2017-12-02T00:06:53.884Z,19.98
2017-12-02T00:09:34.576Z,18.67
2017-12-02T00:12:12.274Z,18.50
2017-12-02T00:14:50.157Z,18.58
2017-12-02T00:17:25.000Z,18.90
2017-12-02T00:20:03.155Z,19.08
2017-12-02T00:22:42.669Z,20.25
2017-12-02T00:25:25.707Z,19.05
2017-12-02T00:28:09.804Z,19.08
2017-12-02T00:30:45.651Z,18.83
2017-12-02T00:33:23.658Z,19.58
2017-12-02T00:36:05.896Z,19.12
2017-12-02T00:38:46.997Z,17.27
2017-12-02T00:41:25.514Z,17.50
2017-12-02T00:44:02.668Z,18.70
2017-12-02T00:46:42.631Z,17.50
2017-12-02T00:49:22.951Z,18.48
2017-12-02T00:52:02.396Z,19.83
2017-12-02T00:54:43.781Z,19.87
2017-12-02T00:57:19.909Z,20.50
2017-12-02T00:59:58.187Z,19.67
2017-12-02T01:02:34.007Z,19.58
2017-12-02T01:05:14.193Z,18.70
2017-12-02T01:07:59.671Z,17.87
2017-12-02T01:10:42.468Z,17.35
2017-12-02T01:13:32.158Z,15.32
2017-12-02T01:16:13.415Z,18.75
2017-12-02T01:18:56.806Z,17.35
2017-12-02T01:21:36.822Z,18.20
2017-12-02T01:24:21.757Z,17.52
2017-12-02T01:26:58.399Z,18.30
2017-12-02T01:29:37.875Z,18.27
2017-12-02T01:32:14.159Z,18.10
2017-12-02T01:34:55.758Z,18.15
2017-12-02T01:37:39.591Z,18.48
2017-12-02T01:40:22.780Z,18.23
2017-12-02T01:43:07.531Z,18.00
2017-12-02T01:45:45.012Z,20.92
2017-12-02T01:48:24.237Z,18.62
2017-12-02T01:51:04.566Z,17.40
2017-12-02T01:53:44.005Z,18.05
2017-12-02T01:59:19.993Z,19.08
2017-12-02T02:02:04.096Z,18.10
2017-12-02T02:04:51.719Z,17.02
2017-12-02T02:07:29.157Z,17.05
2017-12-02T02:10:07.567Z,20.20
2017-12-02T02:12:50.340Z,19.70
2017-12-02T02:15:30.557Z,18.25
2017-12-02T02:18:09.535Z,16.75
2017-12-02T02:20:46.427Z,15.98
2017-12-02T02:23:25.220Z,15.55
2017-12-02T02:25:59.990Z,16.02
2017-12-02T02:28:43.912Z,15.77
2017-12-02T02:31:16.993Z,16.55
2017-12-02T02:33:53.546Z,18.25
2017-12-02T02:36:26.546Z,16.92
2017-12-02T02:39:10.151Z,17.23
2017-12-02T02:41:44.556Z,16.80
2017-12-02T02:44:21.002Z,17.90
2017-12-02T02:47:01.375Z,18.02
2017-12-02T02:49:46.556Z,16.48
2017-12-02T02:52:24.292Z,17.00
2017-12-02T02:55:03.067Z,16.90
2017-12-02T02:57:43.963Z,15.25
2017-12-02T03:00:18.828Z,16.37
2017-12-02T03:03:03.331Z,17.00
2017-12-02T03:05:42.898Z,17.67
2017-12-02T03:08:22.042Z,17.42
2017-12-02T03:10:59.021Z,17.35
2017-12-02T03:13:36.562Z,16.92
2017-12-02T03:16:23.055Z,16.52
2017-12-02T03:19:03.331Z,18.42
2017-12-02T03:22:09.963Z,17.95
2017-12-02T03:24:51.051Z,17.37
2017-12-02T03:27:30.105Z,18.90
2017-12-02T03:30:10.725Z,17.23
2017-12-02T03:32:50.801Z,18.20
2017-12-02T03:35:26.482Z,18.45
2017-12-02T03:38:04.823Z,19.20
2017-12-02T03:40:42.487Z,17.55
2017-12-02T03:43:23.420Z,17.20
2017-12-02T03:45:59.665Z,17.92
2017-12-02T03:48:48.481Z,17.05
2017-12-02T03:51:25.322Z,18.42
2017-12-02T03:54:04.700Z,19.17
2017-12-02T03:56:45.373Z,18.37
2017-12-02T04:02:31.601Z,17.50
2017-12-02T04:05:07.781Z,20.42
2017-12-02T04:07:45.658Z,22.23
2017-12-02T04:10:23.880Z,19.23
2017-12-02T04:13:03.248Z,19.62
2017-12-02T04:15:46.336Z,20.52
2017-12-02T04:21:14.809Z,22.37
2017-12-02T04:23:52.610Z,23.38
2017-12-02T04:26:32.304Z,25.50
2017-12-02T04:29:15.951Z,24.33
2017-12-02T04:31:51.717Z,24.37
2017-12-02T04:34:32.555Z,22.75
2017-12-02T04:37:25.118Z,23.62
2017-12-02T04:40:02.759Z,23.95
2017-12-02T04:42:48.535Z,23.42
2017-12-02T04:45:29.404Z,21.15
2017-12-02T04:48:09.997Z,21.50
2017-12-02T04:50:49.819Z,22.62
2017-12-02T04:53:30.340Z,21.17
2017-12-02T04:56:09.466Z,21.33
2017-12-02T04:58:50.407Z,22.52
2017-12-02T05:01:30.659Z,23.23
2017-12-02T05:04:13.940Z,22.73
2017-12-02T05:06:49.858Z,23.85
2017-12-02T05:09:29.011Z,22.52
2017-12-02T05:12:17.972Z,23.00
2017-12-02T05:14:54.544Z,22.33
2017-12-02T05:17:34.479Z,20.67
2017-12-02T05:20:12.030Z,22.65
2017-12-02T05:22:52.766Z,23.05
2017-12-02T05:25:33.138Z,22.92
2017-12-02T05:28:06.825Z,20.62
2017-12-02T05:33:31.560Z,20.90
2017-12-02T05:36:09.185Z,21.73
2017-12-02T05:38:47.453Z,21.73
2017-12-02T05:41:28.294Z,21.00
2017-12-02T05:44:03.023Z,22.83
2017-12-02T05:46:41.332Z,23.98
2017-12-02T05:49:23.704Z,21.30
2017-12-02T05:52:02.624Z,22.15
2017-12-02T05:54:41.605Z,22.17
2017-12-02T05:57:19.414Z,21.83
2017-12-02T06:00:00.566Z,21.98
2017-12-02T06:02:35.157Z,22.83
2017-12-02T06:05:09.778Z,22.23
2017-12-02T06:07:45.226Z,21.52
2017-12-02T06:10:37.474Z,22.87
2017-12-02T06:13:17.762Z,21.48
2017-12-02T06:15:54.122Z,22.08
2017-12-02T06:18:32.649Z,21.52
2017-12-02T06:22:10.333Z,21.77
2017-12-02T06:24:46.280Z,21.40
2017-12-02T06:27:26.784Z,19.92
2017-12-02T06:30:10.403Z,20.83
2017-12-02T06:32:46.316Z,19.62
2017-12-02T06:35:23.082Z,21.27
2017-12-02T06:38:00.419Z,21.00
2017-12-02T06:40:37.636Z,19.65
2017-12-02T06:43:16.437Z,20.83
2017-12-02T06:45:59.762Z,22.37
2017-12-02T06:48:39.498Z,20.45
2017-12-02T06:51:15.373Z,20.30
2017-12-02T06:54:00.794Z,20.45
2017-12-02T06:56:36.281Z,22.45
2017-12-02T06:59:15.185Z,20.80
2017-12-02T07:01:57.090Z,21.45
2017-12-02T07:04:38.057Z,20.98
2017-12-02T07:10:09.188Z,22.02
2017-12-02T07:12:53.278Z,22.87
2017-12-02T07:15:29.750Z,22.83
2017-12-02T07:18:13.398Z,22.02
2017-12-02T07:20:51.310Z,21.52
2017-12-02T07:23:30.227Z,22.17
2017-12-02T07:26:08.315Z,21.73
2017-12-02T07:28:45.480Z,22.15
2017-12-02T07:31:21.257Z,20.88
2017-12-02T07:33:56.645Z,21.87
2017-12-02T07:36:42.415Z,24.45
2017-12-02T07:39:23.843Z,21.35
2017-12-02T07:41:58.323Z,21.15
2017-12-02T07:44:43.952Z,20.52
2017-12-02T07:47:24.216Z,22.40
2017-12-02T07:50:02.766Z,21.27
2017-12-02T07:52:47.967Z,21.25
2017-12-02T07:55:22.506Z,20.52
2017-12-02T07:57:56.614Z,21.10
2017-12-02T08:00:39.286Z,21.75
2017-12-02T08:03:16.503Z,21.48
2017-12-02T08:06:04.171Z,20.50
2017-12-02T08:08:47.472Z,21.98
2017-12-02T08:11:32.502Z,21.65
2017-12-02T08:14:06.769Z,22.52
2017-12-02T08:16:49.849Z,22.08
2017-12-02T08:19:25.675Z,23.30
2017-12-02T08:22:06.840Z,22.10
2017-12-02T08:24:45.874Z,22.15
2017-12-02T08:27:21.674Z,21.90
2017-12-02T08:30:16.381Z,21.12
2017-12-02T08:32:56.040Z,21.50
2017-12-02T08:35:37.270Z,21.85
2017-12-02T08:38:23.339Z,24.37
2017-12-02T08:40:59.745Z,26.45
2017-12-02T08:43:35.160Z,26.20
2017-12-02T08:46:11.489Z,22.75
2017-12-02T08:48:58.750Z,24.70
2017-12-02T09:02:57.470Z,25.37
2017-12-02T09:05:38.741Z,24.95
2017-12-02T09:08:17.239Z,26.23
2017-12-02T09:10:56.854Z,25.45
2017-12-02T09:13:38.347Z,26.30
2017-12-02T09:16:18.043Z,25.37
2017-12-02T09:18:59.371Z,27.65
2017-12-02T09:24:35.872Z,22.48
2017-12-02T09:27:16.573Z,24.42
2017-12-02T09:32:41.354Z,23.10
2017-12-02T09:35:18.549Z,24.52
2017-12-02T09:37:58.157Z,23.25
2017-12-02T09:40:37.671Z,21.65
2017-12-02T09:43:24.073Z,18.60
2017-12-02T09:46:03.629Z,14.77
2017-12-02T09:48:43.843Z,16.98
2017-12-02T09:51:19.688Z,18.55
2017-12-02T09:53:59.194Z,18.20
2017-12-02T09:56:39.228Z,18.48
2017-12-02T09:59:18.470Z,19.70
2017-12-02T10:04:43.105Z,19.50
2017-12-02T10:07:20.990Z,20.40
2017-12-02T10:12:51.934Z,19.17
2017-12-02T10:15:31.892Z,17.83
2017-12-02T10:18:10.192Z,18.42
2017-12-02T10:20:48.268Z,20.73
2017-12-02T10:23:28.867Z,18.83
2017-12-02T10:26:04.663Z,19.15
2017-12-02T10:28:40.648Z,19.60
2017-12-02T10:31:15.116Z,18.33
2017-12-02T10:34:01.108Z,16.58
2017-12-02T10:36:38.024Z,18.52
2017-12-02T10:39:16.197Z,16.98
2017-12-02T10:41:51.487Z,18.33
2017-12-02T10:44:33.061Z,16.58
2017-12-02T10:47:09.983Z,20.48
2017-12-02T10:49:50.780Z,18.87
2017-12-02T10:52:30.341Z,18.87
2017-12-02T10:55:06.502Z,18.02
2017-12-02T10:57:42.159Z,25.70
2017-12-02T11:00:19.593Z,17.15
2017-12-02T11:03:02.144Z,21.05
2017-12-02T11:05:41.336Z,21.05
2017-12-02T11:08:23.342Z,19.73
2017-12-02T11:11:02.747Z,18.92
2017-12-02T11:13:39.069Z,17.85
2017-12-02T11:16:18.261Z,17.87
2017-12-02T11:21:49.362Z,18.95
2017-12-02T11:24:33.266Z,16.65
2017-12-02T11:27:37.498Z,15.90
2017-12-02T11:33:08.494Z,16.35
2017-12-02T11:35:50.033Z,16.23
2017-12-02T11:38:31.202Z,16.02
2017-12-02T11:41:08.328Z,16.52
2017-12-02T11:43:45.510Z,16.40
2017-12-02T11:46:29.106Z,17.30
2017-12-02T11:52:06.644Z,15.68
2017-12-02T11:54:44.938Z,14.85
2017-12-02T11:57:27.583Z,15.40
2017-12-02T12:00:06.615Z,17.40
2017-12-02T12:02:45.711Z,14.40
2017-12-02T12:05:32.321Z,16.17
2017-12-02T12:10:54.622Z,16.67
2017-12-02T12:13:34.591Z,16.25
2017-12-02T12:16:11.830Z,18.37
2017-12-02T12:18:46.005Z,19.17
2017-12-02T12:21:23.784Z,17.35
2017-12-02T12:23:58.519Z,17.40
2017-12-02T12:26:36.097Z,18.85
2017-12-02T12:29:13.154Z,17.73
2017-12-02T12:31:49.181Z,19.73
2017-12-02T12:34:24.879Z,18.37
2017-12-02T12:37:05.319Z,18.05
2017-12-02T12:39:50.710Z,18.08
2017-12-02T12:45:18.170Z,19.87
2017-12-02T12:47:56.516Z,17.65
2017-12-02T12:50:38.210Z,17.52
2017-12-02T12:53:21.968Z,18.17
2017-12-02T12:56:00.608Z,21.10
2017-12-02T12:58:41.002Z,18.00
2017-12-02T13:01:21.307Z,17.20
2017-12-02T13:04:01.114Z,17.23
2017-12-02T13:06:40.503Z,17.67
2017-12-02T13:09:21.991Z,16.90
2017-12-02T13:12:12.769Z,18.15
2017-12-02T13:14:49.369Z,18.15
2017-12-02T13:17:25.564Z,17.23
2017-12-02T13:20:04.481Z,17.67
2017-12-02T13:22:50.249Z,18.08
2017-12-02T13:25:36.788Z,18.33
2017-12-02T13:28:23.701Z,17.90
2017-12-02T13:31:21.481Z,16.40
2017-12-02T13:34:03.980Z,17.52
2017-12-02T13:36:47.052Z,16.75
2017-12-02T13:39:27.602Z,17.52
2017-12-02T13:42:08.086Z,18.37
2017-12-02T13:44:57.231Z,19.08
2017-12-02T13:47:33.873Z,20.25
2017-12-02T13:50:14.624Z,17.73
2017-12-02T13:52:54.907Z,17.73
2017-12-02T13:55:44.572Z,16.35
2017-12-02T13:58:42.923Z,15.18
2017-12-02T14:04:12.259Z,15.70
2017-12-02T14:06:52.256Z,16.70
2017-12-02T14:09:42.614Z,12.95
2017-12-02T14:15:24.901Z,15.32
2017-12-02T14:18:11.647Z,14.80
2017-12-02T14:20:57.576Z,15.63
2017-12-02T14:23:42.608Z,14.55
2017-12-02T14:26:21.974Z,15.48
2017-12-02T14:32:01.366Z,14.32
2017-12-02T14:34:42.847Z,14.05
2017-12-02T14:40:32.078Z,15.23
2017-12-02T14:43:18.448Z,15.30
2017-12-02T14:46:14.008Z,19.70
2017-12-02T14:48:53.256Z,13.57
2017-12-02T14:51:41.644Z,12.85
2017-12-02T14:54:26.468Z,16.90
2017-12-02T14:57:08.676Z,12.18
2017-12-02T14:59:59.292Z,13.25
2017-12-02T15:02:42.447Z,15.35
2017-12-02T15:05:32.036Z,15.25
2017-12-02T15:08:13.538Z,12.65
2017-12-02T15:10:52.179Z,14.00
2017-12-02T15:16:28.577Z,15.52
2017-12-02T15:19:24.282Z,13.02
2017-12-02T15:22:06.709Z,14.43
2017-12-02T15:24:58.168Z,14.38
2017-12-02T15:27:41.941Z,15.18
2017-12-02T15:30:27.878Z,13.68
2017-12-02T15:33:14.434Z,15.20
2017-12-02T15:35:52.394Z,14.77
2017-12-02T15:38:28.608Z,15.93
2017-12-02T15:41:10.770Z,15.95
2017-12-02T15:43:48.906Z,14.20
2017-12-02T15:46:29.563Z,15.48
2017-12-02T15:49:09.556Z,18.33
2017-12-02T15:51:49.349Z,19.08
2017-12-02T15:54:31.449Z,17.75
2017-12-02T15:57:12.507Z,17.25
2017-12-02T15:59:49.823Z,15.88
2017-12-02T16:02:30.829Z,16.90
2017-12-02T16:05:12.535Z,17.65
2017-12-02T16:07:51.629Z,16.50
2017-12-02T16:10:29.192Z,16.83
2017-12-02T16:13:06.658Z,16.27
2017-12-02T16:16:20.613Z,15.77
2017-12-02T16:19:02.622Z,15.38
2017-12-02T16:21:50.908Z,15.43
2017-12-02T16:24:46.710Z,15.88
2017-12-02T16:27:22.426Z,16.80
2017-12-02T16:30:00.556Z,20.08
2017-12-02T16:32:45.136Z,18.65
2017-12-02T16:35:30.030Z,17.83
2017-12-02T16:38:10.143Z,17.40
2017-12-02T16:40:52.864Z,22.13
2017-12-02T16:43:32.618Z,18.00
2017-12-02T16:46:10.771Z,29.25
2017-12-02T16:48:55.582Z,25.30
2017-12-02T16:51:36.141Z,28.15
2017-12-02T16:54:21.514Z,28.45
2017-12-02T16:57:00.482Z,20.25
2017-12-02T16:59:44.778Z,17.92
2017-12-02T17:08:07.869Z,19.35
2017-12-02T17:10:45.952Z,15.73
2017-12-02T17:13:24.057Z,17.15
2017-12-02T17:16:03.593Z,15.32
2017-12-02T17:18:48.282Z,15.32
2017-12-02T17:21:33.748Z,14.40
2017-12-02T17:24:24.913Z,17.08
2017-12-02T17:27:04.588Z,19.17
2017-12-02T17:29:53.517Z,17.33
2017-12-02T17:32:37.678Z,17.58
2017-12-02T17:40:48.838Z,17.17
2017-12-02T17:43:30.484Z,19.30
2017-12-02T17:46:13.945Z,19.75
2017-12-02T17:48:55.889Z,23.30
2017-12-02T17:51:35.846Z,16.15
2017-12-02T17:54:16.144Z,23.90
2017-12-02T17:56:59.071Z,17.12
2017-12-02T17:59:56.965Z,22.45
2017-12-02T18:02:36.093Z,28.27
2017-12-02T18:08:11.209Z,15.63
2017-12-02T18:10:49.776Z,13.95
2017-12-02T18:13:30.577Z,13.20
2017-12-02T18:16:12.191Z,13.95
2017-12-02T18:18:56.068Z,15.20
2017-12-02T18:21:36.075Z,13.60
2017-12-02T18:24:12.199Z,13.93
2017-12-02T18:26:53.246Z,13.40
2017-12-02T18:29:33.468Z,16.37
2017-12-02T18:35:06.950Z,15.48
2017-12-02T18:37:42.501Z,15.02
2017-12-02T18:40:20.231Z,15.80
2017-12-02T18:43:06.283Z,15.02
2017-12-02T18:45:46.780Z,15.88
2017-12-02T18:48:29.180Z,15.65
2017-12-02T18:51:11.561Z,15.48
2017-12-02T18:54:03.322Z,14.82
2017-12-02T18:56:47.151Z,14.95
2017-12-02T19:02:26.473Z,13.25
2017-12-02T19:05:11.972Z,15.18
2017-12-02T19:07:54.635Z,13.60
2017-12-02T19:10:33.460Z,13.60
2017-12-02T19:13:15.066Z,13.05
2017-12-02T19:16:08.907Z,11.93
2017-12-02T19:19:01.628Z,12.07
2017-12-02T19:21:41.363Z,11.73
2017-12-02T19:24:21.486Z,12.13
2017-12-02T19:27:01.130Z,12.13
2017-12-02T19:29:42.534Z,11.23
2017-12-02T19:32:24.083Z,11.10
2017-12-02T19:35:05.457Z,11.45
2017-12-02T19:37:45.724Z,10.88
2017-12-02T19:40:24.498Z,12.00
2017-12-02T19:43:16.413Z,12.02
2017-12-02T19:45:55.837Z,11.32
2017-12-02T19:48:37.175Z,11.40
2017-12-02T19:51:19.550Z,11.25
2017-12-02T19:53:58.334Z,11.45
2017-12-02T19:56:37.604Z,11.55
2017-12-02T19:59:17.461Z,11.63
2017-12-02T20:01:57.066Z,11.43
2017-12-02T20:04:33.975Z,10.25
2017-12-02T20:07:17.696Z,10.30
2017-12-02T20:10:01.121Z,11.23
2017-12-02T20:12:36.493Z,9.88
2017-12-02T20:15:18.103Z,8.85
2017-12-02T20:17:58.249Z,10.30
2017-12-02T20:20:36.682Z,9.13
2017-12-02T20:23:15.228Z,9.82
2017-12-02T20:25:57.322Z,10.40
2017-12-02T20:28:36.299Z,9.48
2017-12-02T20:31:22.942Z,9.52
2017-12-02T20:34:00.268Z,9.52
2017-12-02T20:36:42.044Z,9.27
2017-12-02T20:39:20.774Z,9.75
2017-12-02T20:41:56.303Z,9.70
2017-12-02T20:44:38.491Z,10.05
2017-12-02T20:47:17.021Z,9.40
2017-12-02T20:49:58.099Z,9.45
2017-12-02T20:52:37.005Z,9.68
2017-12-02T20:55:43.647Z,10.05
2017-12-02T20:58:27.426Z,10.57
2017-12-02T21:01:03.950Z,10.80
2017-12-02T21:03:44.242Z,10.27
2017-12-02T21:06:21.851Z,10.80
2017-12-02T21:09:00.901Z,14.90
2017-12-02T21:11:38.326Z,22.33
2017-12-02T21:14:16.670Z,14.23
2017-12-02T21:16:51.984Z,13.98
2017-12-02T21:19:28.298Z,14.60
2017-12-02T21:22:09.916Z,12.85
2017-12-02T21:24:47.836Z,13.73
2017-12-02T21:27:36.068Z,11.05
2017-12-02T21:30:18.758Z,10.77
2017-12-02T21:32:59.261Z,11.60
2017-12-02T21:35:39.535Z,10.18
2017-12-02T21:38:20.170Z,9.57
2017-12-02T21:41:01.628Z,9.60
2017-12-02T21:43:40.160Z,10.43
2017-12-02T21:46:17.062Z,10.77
2017-12-02T21:49:10.535Z,10.20
2017-12-02T21:51:59.596Z,10.23
2017-12-02T21:54:39.137Z,10.25
2017-12-02T21:57:20.857Z,9.70
2017-12-02T22:00:07.155Z,10.18
2017-12-02T22:02:48.475Z,10.60
2017-12-02T22:05:32.551Z,10.77
2017-12-02T22:08:15.785Z,10.65
2017-12-02T22:10:55.861Z,12.80
2017-12-02T22:13:39.444Z,11.75
2017-12-02T22:16:16.818Z,11.40
2017-12-02T22:18:59.137Z,11.30
2017-12-02T22:21:35.407Z,11.32
2017-12-02T22:24:13.657Z,11.50
2017-12-02T22:26:52.584Z,11.73
2017-12-02T22:29:32.273Z,10.75
2017-12-02T22:32:11.965Z,12.70
2017-12-02T22:34:59.856Z,12.02
2017-12-02T22:37:40.087Z,11.32
2017-12-02T22:40:16.155Z,12.37
2017-12-02T22:43:00.981Z,11.80
2017-12-02T22:45:45.875Z,10.63
2017-12-02T22:48:22.378Z,11.18
2017-12-02T22:51:02.000Z,11.25
2017-12-02T22:53:37.921Z,11.23
2017-12-02T22:56:17.829Z,10.85
2017-12-02T22:59:04.388Z,11.73
2017-12-02T23:01:50.613Z,11.70
2017-12-02T23:04:31.869Z,10.75
2017-12-02T23:07:13.144Z,11.25
2017-12-02T23:09:54.849Z,12.00
2017-12-02T23:12:35.864Z,11.88
2017-12-02T23:15:23.720Z,12.73
2017-12-02T23:17:58.160Z,13.32
2017-12-02T23:20:45.309Z,11.88
2017-12-02T23:23:23.938Z,13.05
2017-12-02T23:26:14.960Z,11.32
2017-12-02T23:28:53.921Z,11.90
2017-12-02T23:31:32.160Z,10.98
2017-12-02T23:34:14.366Z,11.70
2017-12-02T23:36:50.292Z,10.90
2017-12-02T23:40:06.681Z,10.90
2017-12-02T23:42:45.566Z,11.68
2017-12-02T23:45:22.966Z,12.15
2017-12-02T23:48:01.852Z,12.05
2017-12-02T23:50:47.615Z,11.48
2017-12-02T23:53:33.452Z,11.45
2017-12-02T23:56:16.214Z,10.98
2017-12-02T23:58:52.495Z,11.50
